createdAt,value
2017-09-16T00:00:28.717Z,99.99
2017-09-16T00:01:28.711Z,99.99
2017-09-16T00:02:28.707Z,99.99
2017-09-16T00:03:28.701Z,99.99
2017-09-16T00:04:28.695Z,99.99
2017-09-16T00:05:28.691Z,99.99
2017-09-16T00:06:28.686Z,99.99
2017-09-16T00:07:28.680Z,99.99
2017-09-16T00:08:28.675Z,99.99
2017-09-16T00:09:28.670Z,99.99
2017-09-16T00:10:28.664Z,99.99
2017-09-16T00:11:28.659Z,99.99
2017-09-16T00:12:28.653Z,99.99
2017-09-16T00:13:28.649Z,99.99
2017-09-16T00:14:28.644Z,99.99
2017-09-16T00:15:28.638Z,99.99
2017-09-16T00:16:28.632Z,99.99
2017-09-16T00:17:28.628Z,99.99
2017-09-16T00:18:28.624Z,99.99
2017-09-16T00:19:28.620Z,99.99
2017-09-16T00:20:28.612Z,99.99
2017-09-16T00:21:28.606Z,99.99
2017-09-16T00:22:28.601Z,99.99
2017-09-16T00:23:28.595Z,99.99
2017-09-16T00:24:28.590Z,99.99
2017-09-16T00:25:28.586Z,99.99
2017-09-16T00:26:28.580Z,99.99
2017-09-16T00:27:28.575Z,99.99
2017-09-16T00:28:28.570Z,99.99
2017-09-16T00:29:28.566Z,99.99
2017-09-16T00:30:28.561Z,99.99
2017-09-16T00:31:28.554Z,99.99
2017-09-16T00:32:28.548Z,99.99
2017-09-16T00:33:28.545Z,99.99
2017-09-16T00:34:28.540Z,99.99
2017-09-16T00:35:28.532Z,99.99
2017-09-16T00:36:28.528Z,99.99
2017-09-16T00:37:28.524Z,99.99
2017-09-16T00:38:28.518Z,99.99
2017-09-16T00:39:28.514Z,99.99
2017-09-16T00:40:28.507Z,99.99
2017-09-16T00:41:28.503Z,99.99
2017-09-16T00:42:28.497Z,99.99
2017-09-16T00:43:28.494Z,99.99
2017-09-16T00:44:28.487Z,99.99
2017-09-16T00:45:28.481Z,99.99
2017-09-16T00:46:28.479Z,99.99
2017-09-16T00:47:28.469Z,99.99
2017-09-16T00:48:28.466Z,99.99
2017-09-16T00:49:28.461Z,99.99
2017-09-16T00:50:28.454Z,99.99
2017-09-16T00:51:28.450Z,99.99
2017-09-16T00:52:28.445Z,99.99
2017-09-16T00:53:28.442Z,99.99
2017-09-16T00:54:28.435Z,99.99
2017-09-16T00:55:28.429Z,99.99
2017-09-16T00:56:28.424Z,99.99
2017-09-16T00:57:28.419Z,99.99
2017-09-16T00:58:28.414Z,99.99
2017-09-16T00:59:28.407Z,99.99
2017-09-16T01:00:28.403Z,99.99
2017-09-16T01:01:28.398Z,99.99
2017-09-16T01:02:28.393Z,99.99
2017-09-16T01:03:28.387Z,99.99
2017-09-16T01:04:28.385Z,99.99
2017-09-16T01:05:28.376Z,99.99
2017-09-16T01:06:28.372Z,99.99
2017-09-16T01:07:28.366Z,99.99
2017-09-16T01:08:28.361Z,99.99
2017-09-16T01:09:28.355Z,99.99
2017-09-16T01:10:28.350Z,99.99
2017-09-16T01:11:28.345Z,99.99
2017-09-16T01:12:28.339Z,99.99
2017-09-16T01:13:28.335Z,99.99
2017-09-16T01:14:28.330Z,99.99
2017-09-16T01:15:28.323Z,99.99
2017-09-16T01:16:28.318Z,99.99
2017-09-16T01:17:28.314Z,99.99
2017-09-16T01:18:28.307Z,99.99
2017-09-16T01:19:28.303Z,99.99
2017-09-16T01:20:28.295Z,99.99
2017-09-16T01:21:28.291Z,99.99
2017-09-16T01:22:28.285Z,99.99
2017-09-16T01:23:28.281Z,99.99
2017-09-16T01:24:28.275Z,99.99
2017-09-16T01:25:28.271Z,99.99
2017-09-16T01:26:28.265Z,99.99
2017-09-16T01:27:28.258Z,99.99
2017-09-16T01:28:28.255Z,99.99
2017-09-16T01:29:28.249Z,99.99
2017-09-16T01:30:28.244Z,99.99
2017-09-16T01:31:28.237Z,99.99
2017-09-16T01:32:28.233Z,99.99
2017-09-16T01:33:28.228Z,99.99
2017-09-16T01:34:28.222Z,99.99
2017-09-16T01:35:28.217Z,99.99
2017-09-16T01:36:28.211Z,99.99
2017-09-16T01:37:28.206Z,99.99
2017-09-16T01:38:28.200Z,99.99
2017-09-16T01:39:28.194Z,99.99
2017-09-16T01:40:28.189Z,99.99
2017-09-16T01:41:28.185Z,99.99
2017-09-16T01:42:28.179Z,99.99
2017-09-16T01:43:28.173Z,99.99
2017-09-16T01:44:28.166Z,99.99
2017-09-16T01:45:28.162Z,99.99
2017-09-16T01:46:28.158Z,99.99
2017-09-16T01:47:28.151Z,99.99
2017-09-16T01:48:28.146Z,99.99
2017-09-16T01:49:28.141Z,99.99
2017-09-16T01:50:28.136Z,99.99
2017-09-16T01:51:28.129Z,99.99
2017-09-16T01:52:28.124Z,99.99
2017-09-16T01:53:28.119Z,99.99
2017-09-16T01:54:28.114Z,99.99
2017-09-16T01:55:28.107Z,99.99
2017-09-16T01:56:28.101Z,99.99
2017-09-16T01:57:28.095Z,99.99
2017-09-16T01:58:28.092Z,99.99
2017-09-16T01:59:28.084Z,99.99
2017-09-16T02:00:28.080Z,99.99
2017-09-16T02:01:28.075Z,99.99
2017-09-16T02:02:28.069Z,99.99
2017-09-16T02:03:28.064Z,99.99
2017-09-16T02:04:28.058Z,99.99
2017-09-16T02:05:28.052Z,99.99
2017-09-16T02:06:28.048Z,99.99
2017-09-16T02:07:28.040Z,99.99
2017-09-16T02:08:28.035Z,99.99
2017-09-16T02:09:28.030Z,99.99
2017-09-16T02:10:28.026Z,99.99
2017-09-16T02:11:28.018Z,99.99
2017-09-16T02:12:28.014Z,99.99
2017-09-16T02:13:28.008Z,99.99
2017-09-16T02:14:28.003Z,99.99
2017-09-16T02:15:27.997Z,99.99
2017-09-16T02:16:27.990Z,99.99
2017-09-16T02:17:27.985Z,99.99
2017-09-16T02:18:27.983Z,99.99
2017-09-16T02:19:27.973Z,99.99
2017-09-16T02:20:27.968Z,99.99
2017-09-16T02:21:27.964Z,99.99
2017-09-16T02:22:27.957Z,99.99
2017-09-16T02:23:27.952Z,99.99
2017-09-16T02:24:27.950Z,99.99
2017-09-16T02:25:27.940Z,99.99
2017-09-16T02:26:27.938Z,99.99
2017-09-16T02:27:27.928Z,99.99
2017-09-16T02:28:27.923Z,99.99
2017-09-16T02:29:27.918Z,99.99
2017-09-16T02:30:27.913Z,99.99
2017-09-16T02:31:27.905Z,99.99
2017-09-16T02:32:27.901Z,99.99
2017-09-16T02:33:27.895Z,99.99
2017-09-16T02:34:27.892Z,99.99
2017-09-16T02:35:27.884Z,99.99
2017-09-16T02:36:27.879Z,99.99
2017-09-16T02:37:27.872Z,99.99
2017-09-16T02:38:27.865Z,99.99
2017-09-16T02:39:27.861Z,99.99
2017-09-16T02:40:27.856Z,99.99
2017-09-16T02:41:27.848Z,99.99
2017-09-16T02:42:27.878Z,99.99
2017-09-16T02:43:27.838Z,99.99
2017-09-16T02:44:27.831Z,99.99
2017-09-16T02:45:27.827Z,99.99
2017-09-16T02:46:27.821Z,99.99
2017-09-16T02:47:27.814Z,99.99
2017-09-16T02:48:27.811Z,99.99
2017-09-16T02:49:27.806Z,99.99
2017-09-16T02:50:27.798Z,99.99
2017-09-16T02:51:27.793Z,99.99
2017-09-16T02:52:27.787Z,99.99
2017-09-16T02:53:27.784Z,99.99
2017-09-16T02:54:27.776Z,99.99
2017-09-16T02:55:27.768Z,99.99
2017-09-16T02:56:27.765Z,99.99
2017-09-16T02:57:27.760Z,99.99
2017-09-16T02:58:27.752Z,99.99
2017-09-16T02:59:27.757Z,99.99
2017-09-16T03:00:27.741Z,99.99
2017-09-16T03:01:27.734Z,99.99
2017-09-16T03:02:27.729Z,99.99
2017-09-16T03:03:27.723Z,99.99
2017-09-16T03:04:27.718Z,99.99
2017-09-16T03:05:27.713Z,99.99
2017-09-16T03:06:27.707Z,99.99
2017-09-16T03:07:27.701Z,99.99
2017-09-16T03:08:27.693Z,99.99
2017-09-16T03:09:27.688Z,99.99
2017-09-16T03:10:27.684Z,99.99
2017-09-16T03:11:27.680Z,99.99
2017-09-16T03:12:27.671Z,99.99
2017-09-16T03:13:27.666Z,99.99
2017-09-16T03:14:27.668Z,99.99
2017-09-16T03:15:27.654Z,99.99
2017-09-16T03:16:27.648Z,99.99
2017-09-16T03:17:27.643Z,99.99
2017-09-16T03:18:27.637Z,99.99
2017-09-16T03:19:27.631Z,99.99
2017-09-16T03:20:27.626Z,99.99
2017-09-16T03:21:27.620Z,99.99
2017-09-16T03:22:27.614Z,99.99
2017-09-16T03:23:27.609Z,99.99
2017-09-16T03:24:27.601Z,99.99
2017-09-16T03:25:27.596Z,99.99
2017-09-16T03:26:27.590Z,99.99
2017-09-16T03:27:27.584Z,99.99
2017-09-16T03:28:27.579Z,99.99
2017-09-16T03:29:27.574Z,99.99
2017-09-16T03:30:27.570Z,99.99
2017-09-16T03:31:27.569Z,99.99
2017-09-16T03:32:27.555Z,99.99
2017-09-16T03:33:27.552Z,99.99
2017-09-16T03:34:27.545Z,99.99
2017-09-16T03:35:27.538Z,99.99
2017-09-16T03:36:27.533Z,99.99
2017-09-16T03:37:27.528Z,99.99
2017-09-16T03:38:27.522Z,99.99
2017-09-16T03:39:27.516Z,99.99
2017-09-16T03:40:27.511Z,99.99
2017-09-16T03:41:27.504Z,99.99
2017-09-16T03:42:27.500Z,99.99
2017-09-16T03:43:27.493Z,99.99
2017-09-16T03:44:27.487Z,99.99
2017-09-16T03:45:27.482Z,99.99
2017-09-16T03:46:27.476Z,99.99
2017-09-16T03:47:27.470Z,99.99
2017-09-16T03:48:27.463Z,99.99
2017-09-16T03:49:27.459Z,99.99
2017-09-16T03:50:27.455Z,99.99
2017-09-16T03:51:27.445Z,99.99
2017-09-16T03:52:27.443Z,99.99
2017-09-16T03:53:27.435Z,99.99
2017-09-16T03:54:27.430Z,99.99
2017-09-16T03:55:27.424Z,99.99
2017-09-16T03:56:27.417Z,99.99
2017-09-16T03:57:27.411Z,99.99
2017-09-16T03:58:27.407Z,99.99
2017-09-16T03:59:27.399Z,99.99
2017-09-16T04:00:27.395Z,99.99
2017-09-16T04:01:27.389Z,99.99
2017-09-16T04:02:27.382Z,99.99
2017-09-16T04:03:27.377Z,99.99
2017-09-16T04:04:27.370Z,99.99
2017-09-16T04:05:27.365Z,99.99
2017-09-16T04:06:27.360Z,99.99
2017-09-16T04:07:27.352Z,99.99
2017-09-16T04:08:27.348Z,99.99
2017-09-16T04:09:27.343Z,99.99
2017-09-16T04:10:27.336Z,99.99
2017-09-16T04:11:27.330Z,99.99
2017-09-16T04:12:27.323Z,99.99
2017-09-16T04:13:27.318Z,99.99
2017-09-16T04:14:27.313Z,99.99
2017-09-16T04:15:27.305Z,99.99
2017-09-16T04:16:27.301Z,99.99
2017-09-16T04:17:27.297Z,99.99
2017-09-16T04:18:27.290Z,99.99
2017-09-16T04:19:27.284Z,99.99
2017-09-16T04:20:27.277Z,99.99
2017-09-16T04:21:27.275Z,99.99
2017-09-16T04:22:27.266Z,99.99
2017-09-16T04:23:27.260Z,99.99
2017-09-16T04:24:27.254Z,99.99
2017-09-16T04:25:27.251Z,99.99
2017-09-16T04:26:27.243Z,99.99
2017-09-16T04:27:27.236Z,99.99
2017-09-16T04:28:27.230Z,99.99
2017-09-16T04:29:27.224Z,99.99
2017-09-16T04:30:27.219Z,99.99
2017-09-16T04:31:27.212Z,99.99
2017-09-16T04:32:27.210Z,99.99
2017-09-16T04:33:27.201Z,99.99
2017-09-16T04:34:27.195Z,99.99
2017-09-16T04:35:27.188Z,99.99
2017-09-16T04:36:27.183Z,99.99
2017-09-16T04:37:27.176Z,99.99
2017-09-16T04:38:27.172Z,99.99
2017-09-16T04:39:27.163Z,99.99
2017-09-16T04:40:27.160Z,99.99
2017-09-16T04:41:27.153Z,99.99
2017-09-16T04:42:27.147Z,99.99
2017-09-16T04:43:27.141Z,99.99
2017-09-16T04:44:27.133Z,99.99
2017-09-16T04:45:27.127Z,99.99
2017-09-16T04:46:27.123Z,99.99
2017-09-16T04:47:27.116Z,99.99
2017-09-16T04:48:27.110Z,99.99
2017-09-16T04:49:27.105Z,99.99
2017-09-16T04:50:27.099Z,99.99
2017-09-16T04:51:27.093Z,99.99
2017-09-16T04:52:27.086Z,99.99
2017-09-16T04:53:27.081Z,99.99
2017-09-16T04:54:27.075Z,99.99
2017-09-16T04:55:27.068Z,99.99
2017-09-16T04:56:27.061Z,99.99
2017-09-16T04:57:27.056Z,99.99
2017-09-16T04:58:27.055Z,99.99
2017-09-16T04:59:27.043Z,99.99
2017-09-16T05:00:27.039Z,99.99
2017-09-16T05:01:27.032Z,99.99
2017-09-16T05:02:27.027Z,99.99
2017-09-16T05:03:27.025Z,99.99
2017-09-16T05:04:27.014Z,99.99
2017-09-16T05:05:27.015Z,99.99
2017-09-16T05:06:27.004Z,99.99
2017-09-16T05:07:26.997Z,99.99
2017-09-16T05:08:26.991Z,99.99
2017-09-16T05:09:26.985Z,99.99
2017-09-16T05:10:26.979Z,99.99
2017-09-16T05:11:26.972Z,99.99
2017-09-16T05:12:26.967Z,99.99
2017-09-16T05:13:26.961Z,99.99
2017-09-16T05:14:26.957Z,99.99
2017-09-16T05:15:26.950Z,99.99
2017-09-16T05:16:26.943Z,99.99
2017-09-16T05:17:26.938Z,99.99
2017-09-16T05:18:26.933Z,99.99
2017-09-16T05:19:26.933Z,99.99
2017-09-16T05:20:26.921Z,99.99
2017-09-16T05:21:26.915Z,99.99
2017-09-16T05:22:26.909Z,99.99
2017-09-16T05:23:26.903Z,99.99
2017-09-16T05:24:26.900Z,99.99
2017-09-16T05:25:26.892Z,99.99
2017-09-16T05:26:26.886Z,99.99
2017-09-16T05:27:26.879Z,99.99
2017-09-16T05:28:26.875Z,99.99
2017-09-16T05:29:26.868Z,99.99
2017-09-16T05:30:26.862Z,99.99
2017-09-16T05:31:26.857Z,99.99
2017-09-16T05:32:26.850Z,99.99
2017-09-16T05:33:26.845Z,99.99
2017-09-16T05:34:26.841Z,99.99
2017-09-16T05:35:26.832Z,99.99
2017-09-16T05:36:26.827Z,99.99
2017-09-16T05:37:26.821Z,99.99
2017-09-16T05:38:26.816Z,99.99
2017-09-16T05:39:26.809Z,99.99
2017-09-16T05:40:26.804Z,99.99
2017-09-16T05:41:26.797Z,99.99
2017-09-16T05:42:26.793Z,99.99
2017-09-16T05:43:26.785Z,99.99
2017-09-16T05:44:26.782Z,99.99
2017-09-16T05:45:26.775Z,99.99
2017-09-16T05:46:26.770Z,99.99
2017-09-16T05:47:26.764Z,99.99
2017-09-16T05:48:26.759Z,99.99
2017-09-16T05:49:26.754Z,99.99
2017-09-16T05:50:26.748Z,98.03
2017-09-16T05:51:26.743Z,97.46
2017-09-16T05:52:26.738Z,96.66
2017-09-16T05:53:26.734Z,95.61
2017-09-16T05:54:26.734Z,94.74
2017-09-16T05:55:26.724Z,94.22
2017-09-16T05:56:26.719Z,94.51
2017-09-16T05:57:26.715Z,93.98
2017-09-16T05:58:26.711Z,93.60
2017-09-16T05:59:26.706Z,92.65
2017-09-16T06:00:26.701Z,92.50
2017-09-16T06:01:26.700Z,91.59
2017-09-16T06:02:26.694Z,90.59
2017-09-16T06:03:26.689Z,89.97
2017-09-16T06:04:26.685Z,89.11
2017-09-16T06:05:26.683Z,88.96
2017-09-16T06:06:26.679Z,87.24
2017-09-16T06:07:26.676Z,86.80
2017-09-16T06:08:26.673Z,85.75
2017-09-16T06:09:26.669Z,85.22
2017-09-16T06:10:26.667Z,84.16
2017-09-16T06:11:26.664Z,82.63
2017-09-16T06:12:26.660Z,80.62
2017-09-16T06:13:26.660Z,79.47
2017-09-16T06:14:26.657Z,79.57
2017-09-16T06:15:26.662Z,78.89
2017-09-16T06:16:26.653Z,79.22
2017-09-16T06:17:26.652Z,78.84
2017-09-16T06:18:26.651Z,77.92
2017-09-16T06:19:26.648Z,77.06
2017-09-16T06:20:26.648Z,75.90
2017-09-16T06:21:26.647Z,75.04
2017-09-16T06:22:26.646Z,75.14
2017-09-16T06:23:26.645Z,74.66
2017-09-16T06:24:26.645Z,74.52
2017-09-16T06:25:26.645Z,74.95
2017-09-16T06:26:26.645Z,74.47
2017-09-16T06:27:26.643Z,73.90
2017-09-16T06:28:26.645Z,73.45
2017-09-16T06:29:26.643Z,73.26
2017-09-16T06:30:26.645Z,73.41
2017-09-16T06:31:26.644Z,73.13
2017-09-16T06:32:26.644Z,73.63
2017-09-16T06:33:26.646Z,74.99
2017-09-16T06:34:26.647Z,77.15
2017-09-16T06:35:26.647Z,79.10
2017-09-16T06:36:26.647Z,79.05
2017-09-16T06:37:26.649Z,78.99
2017-09-16T06:38:26.651Z,78.02
2017-09-16T06:39:26.648Z,75.98
2017-09-16T06:40:26.651Z,73.68
2017-09-16T06:41:26.652Z,72.49
2017-09-16T06:42:26.654Z,72.63
2017-09-16T06:43:26.654Z,71.37
2017-09-16T06:44:26.656Z,70.49
2017-09-16T06:45:26.656Z,69.62
2017-09-16T06:46:26.660Z,68.24
2017-09-16T06:47:26.659Z,68.18
2017-09-16T06:48:26.660Z,67.45
2017-09-16T06:49:26.665Z,66.91
2017-09-16T06:50:26.667Z,66.39
2017-09-16T06:51:26.668Z,64.28
2017-09-16T06:52:26.670Z,63.73
2017-09-16T06:53:26.675Z,63.25
2017-09-16T06:54:26.677Z,62.19
2017-09-16T06:55:26.678Z,60.97
2017-09-16T06:56:26.684Z,61.71
2017-09-16T06:57:26.687Z,61.55
2017-09-16T06:58:26.692Z,60.52
2017-09-16T06:59:26.693Z,59.71
2017-09-16T07:00:26.696Z,59.17
2017-09-16T07:01:26.701Z,59.49
2017-09-16T07:02:26.705Z,59.45
2017-09-16T07:03:26.709Z,58.49
2017-09-16T07:04:26.713Z,58.47
2017-09-16T07:05:26.718Z,58.83
2017-09-16T07:06:26.723Z,59.94
2017-09-16T07:07:26.727Z,60.21
2017-09-16T07:08:26.733Z,61.20
2017-09-16T07:09:26.737Z,62.29
2017-09-16T07:10:26.743Z,62.29
2017-09-16T07:11:26.749Z,62.99
2017-09-16T07:12:26.753Z,63.02
2017-09-16T07:13:26.759Z,62.48
2017-09-16T07:14:26.766Z,62.58
2017-09-16T07:15:26.770Z,62.64
2017-09-16T07:16:26.776Z,61.87
2017-09-16T07:17:26.782Z,61.65
2017-09-16T07:18:26.786Z,63.22
2017-09-16T07:19:26.793Z,63.38
2017-09-16T07:20:26.801Z,63.09
2017-09-16T07:21:26.806Z,62.48
2017-09-16T07:22:26.812Z,61.00
2017-09-16T07:23:26.817Z,59.36
2017-09-16T07:24:26.824Z,59.24
2017-09-16T07:25:26.830Z,59.79
2017-09-16T07:26:26.837Z,60.81
2017-09-16T07:27:26.843Z,61.22
2017-09-16T07:28:26.849Z,61.29
2017-09-16T07:29:26.855Z,60.30
2017-09-16T07:30:26.862Z,59.56
2017-09-16T07:31:26.869Z,60.42
2017-09-16T07:32:26.875Z,60.21
2017-09-16T07:33:26.881Z,60.78
2017-09-16T07:34:26.889Z,60.94
2017-09-16T07:35:26.895Z,60.61
2017-09-16T07:36:26.902Z,59.52
2017-09-16T07:37:26.909Z,59.43
2017-09-16T07:38:26.916Z,59.40
2017-09-16T07:39:26.922Z,59.56
2017-09-16T07:40:26.930Z,59.59
2017-09-16T07:41:26.936Z,59.45
2017-09-16T07:42:26.944Z,59.23
2017-09-16T07:43:26.951Z,59.43
2017-09-16T07:44:26.959Z,58.45
2017-09-16T07:45:26.967Z,56.51
2017-09-16T07:46:26.974Z,55.44
2017-09-16T07:47:26.980Z,55.99
2017-09-16T07:48:26.987Z,56.27
2017-09-16T07:49:26.997Z,55.87
2017-09-16T07:50:27.005Z,56.95
2017-09-16T07:51:27.012Z,57.10
2017-09-16T07:52:27.019Z,56.36
2017-09-16T07:53:27.028Z,55.68
2017-09-16T07:54:27.037Z,54.72
2017-09-16T07:55:27.044Z,54.84
2017-09-16T07:56:27.051Z,53.71
2017-09-16T07:57:27.061Z,52.82
2017-09-16T07:58:27.071Z,51.28
2017-09-16T07:59:27.082Z,50.07
2017-09-16T08:00:27.090Z,49.32
2017-09-16T08:01:27.097Z,48.61
2017-09-16T08:02:27.107Z,48.90
2017-09-16T08:03:27.115Z,48.39
2017-09-16T08:04:27.124Z,48.97
2017-09-16T08:05:27.135Z,51.41
2017-09-16T08:06:27.144Z,53.86
2017-09-16T08:07:27.170Z,56.52
2017-09-16T08:08:27.166Z,58.06
2017-09-16T08:09:27.172Z,59.95
2017-09-16T08:10:27.183Z,61.58
2017-09-16T08:11:27.190Z,62.55
2017-09-16T08:12:27.209Z,63.41
2017-09-16T08:13:27.208Z,64.92
2017-09-16T08:14:27.215Z,64.92
2017-09-16T08:15:27.224Z,65.01
2017-09-16T08:16:27.230Z,65.27
2017-09-16T08:17:27.239Z,64.08
2017-09-16T08:18:27.247Z,62.12
2017-09-16T08:19:27.254Z,60.49
2017-09-16T08:20:27.262Z,59.20
2017-09-16T08:21:27.269Z,57.95
2017-09-16T08:22:27.277Z,58.40
2017-09-16T08:23:27.285Z,58.52
2017-09-16T08:24:27.316Z,57.85
2017-09-16T08:25:27.300Z,57.79
2017-09-16T08:26:27.310Z,58.11
2017-09-16T08:27:27.316Z,57.62
2017-09-16T08:28:27.325Z,58.28
2017-09-16T08:29:27.333Z,60.46
2017-09-16T08:30:27.339Z,61.43
2017-09-16T08:31:27.347Z,61.65
2017-09-16T08:32:27.360Z,60.94
2017-09-16T08:33:27.363Z,61.13
2017-09-16T08:34:27.370Z,60.27
2017-09-16T08:35:27.384Z,59.88
2017-09-16T08:36:27.388Z,60.42
2017-09-16T08:37:27.481Z,59.84
2017-09-16T08:38:27.483Z,58.09
2017-09-16T08:39:27.408Z,54.73
2017-09-16T08:40:27.418Z,52.68
2017-09-16T08:41:27.426Z,50.33
2017-09-16T08:42:27.438Z,50.55
2017-09-16T08:43:27.440Z,50.31
2017-09-16T08:44:27.450Z,51.05
2017-09-16T08:45:27.463Z,52.39
2017-09-16T08:46:27.472Z,51.30
2017-09-16T08:47:27.477Z,50.38
2017-09-16T08:48:27.488Z,50.33
2017-09-16T08:49:27.502Z,51.25
2017-09-16T08:50:27.510Z,50.38
2017-09-16T08:51:27.522Z,48.25
2017-09-16T08:52:27.528Z,46.21
2017-09-16T08:53:27.541Z,43.37
2017-09-16T08:54:27.551Z,44.06
2017-09-16T08:55:27.562Z,45.05
2017-09-16T08:56:27.579Z,46.19
2017-09-16T08:57:27.585Z,44.20
2017-09-16T08:58:27.598Z,44.86
2017-09-16T08:59:27.609Z,45.17
2017-09-16T09:00:27.621Z,45.04
2017-09-16T09:01:27.635Z,43.71
2017-09-16T09:02:27.646Z,42.82
2017-09-16T09:03:27.659Z,41.65
2017-09-16T09:04:27.673Z,40.42
2017-09-16T09:05:27.684Z,40.91
2017-09-16T09:06:27.696Z,42.68
2017-09-16T09:07:27.709Z,44.63
2017-09-16T09:08:27.721Z,46.34
2017-09-16T09:09:27.735Z,47.36
2017-09-16T09:10:27.749Z,46.41
2017-09-16T09:11:27.760Z,44.02
2017-09-16T09:12:27.773Z,42.90
2017-09-16T09:13:27.786Z,41.91
2017-09-16T09:14:27.800Z,39.82
2017-09-16T09:15:27.812Z,40.08
2017-09-16T09:16:27.826Z,39.72
2017-09-16T09:17:27.840Z,42.65
2017-09-16T09:18:27.851Z,45.64
2017-09-16T09:19:27.865Z,46.29
2017-09-16T09:20:27.891Z,46.17
2017-09-16T09:21:27.891Z,46.72
2017-09-16T09:22:27.904Z,45.34
2017-09-16T09:23:27.916Z,43.64
2017-09-16T09:24:27.929Z,43.60
2017-09-16T09:25:27.942Z,44.91
2017-09-16T09:26:27.956Z,45.74
2017-09-16T09:27:27.967Z,46.02
2017-09-16T09:28:27.979Z,44.64
2017-09-16T09:29:27.992Z,44.19
2017-09-16T09:30:28.007Z,45.81
2017-09-16T09:31:28.017Z,47.74
2017-09-16T09:32:28.030Z,49.34
2017-09-16T09:33:28.043Z,51.37
2017-09-16T09:34:28.057Z,51.25
2017-09-16T09:35:28.065Z,51.53
2017-09-16T09:36:28.077Z,51.73
2017-09-16T09:37:28.089Z,50.40
2017-09-16T09:38:28.101Z,49.19
2017-09-16T09:39:28.110Z,50.13
2017-09-16T09:40:28.121Z,50.04
2017-09-16T09:41:28.131Z,48.25
2017-09-16T09:42:28.142Z,44.41
2017-09-16T09:43:28.152Z,43.46
2017-09-16T09:44:28.162Z,44.72
2017-09-16T09:45:28.172Z,46.19
2017-09-16T09:46:28.183Z,44.83
2017-09-16T09:47:28.192Z,43.59
2017-09-16T09:48:28.203Z,41.06
2017-09-16T09:49:28.220Z,42.67
2017-09-16T09:50:28.225Z,42.70
2017-09-16T09:51:28.235Z,39.86
2017-09-16T09:52:28.245Z,37.70
2017-09-16T09:53:28.257Z,37.10
2017-09-16T09:54:28.268Z,37.15
2017-09-16T09:55:28.278Z,36.43
2017-09-16T09:56:28.293Z,35.31
2017-09-16T09:57:28.306Z,34.99
2017-09-16T09:58:28.318Z,36.99
2017-09-16T09:59:28.328Z,39.70
2017-09-16T10:00:28.342Z,42.94
2017-09-16T10:01:28.356Z,46.03
2017-09-16T10:02:28.368Z,48.35
2017-09-16T10:03:28.380Z,49.70
2017-09-16T10:04:28.392Z,51.12
2017-09-16T10:05:28.562Z,50.84
2017-09-16T10:06:28.416Z,52.25
2017-09-16T10:07:28.426Z,51.73
2017-09-16T10:08:28.438Z,51.70
2017-09-16T10:09:28.448Z,51.99
2017-09-16T10:10:28.460Z,52.57
2017-09-16T10:11:28.467Z,52.39
2017-09-16T10:12:28.477Z,50.12
2017-09-16T10:13:28.486Z,46.92
2017-09-16T10:14:28.496Z,46.77
2017-09-16T10:15:28.504Z,46.66
2017-09-16T10:16:28.520Z,48.18
2017-09-16T10:17:28.521Z,47.79
2017-09-16T10:18:28.539Z,48.01
2017-09-16T10:19:28.536Z,47.36
2017-09-16T10:20:28.545Z,46.36
2017-09-16T10:21:28.553Z,44.00
2017-09-16T10:22:28.562Z,42.64
2017-09-16T10:24:28.579Z,42.78
2017-09-16T10:25:28.587Z,41.48
2017-09-16T10:26:28.595Z,39.65
2017-09-16T10:27:28.604Z,38.54
2017-09-16T10:28:28.614Z,38.89
2017-09-16T10:29:28.622Z,39.78
2017-09-16T10:30:28.632Z,39.06
2017-09-16T10:31:28.642Z,37.87
2017-09-16T10:32:28.651Z,36.93
2017-09-16T10:33:28.662Z,38.24
2017-09-16T10:34:28.673Z,37.08
2017-09-16T10:35:28.682Z,37.39
2017-09-16T10:36:28.694Z,37.29
2017-09-16T10:37:28.711Z,37.78
2017-09-16T10:38:28.718Z,39.32
2017-09-16T10:39:28.728Z,40.00
2017-09-16T10:40:28.739Z,41.43
2017-09-16T10:41:28.752Z,42.50
2017-09-16T10:42:28.762Z,43.16
2017-09-16T10:43:28.773Z,43.84
2017-09-16T10:44:28.785Z,44.30
2017-09-16T10:45:28.800Z,44.76
2017-09-16T10:46:28.805Z,44.86
2017-09-16T10:47:28.814Z,44.93
2017-09-16T10:48:28.825Z,45.47
2017-09-16T10:49:28.835Z,46.15
2017-09-16T10:50:28.846Z,47.41
2017-09-16T10:51:28.851Z,48.06
2017-09-16T10:52:28.865Z,47.77
2017-09-16T10:53:28.873Z,48.13
2017-09-16T10:54:28.877Z,49.19
2017-09-16T10:55:28.884Z,48.30
2017-09-16T10:56:28.890Z,50.13
2017-09-16T10:57:28.898Z,50.62
2017-09-16T10:58:28.906Z,51.17
2017-09-16T10:59:28.912Z,50.86
2017-09-16T11:00:28.917Z,50.96
2017-09-16T11:01:28.926Z,50.86
2017-09-16T11:02:28.931Z,51.12
2017-09-16T11:03:28.936Z,51.71
2017-09-16T11:04:28.941Z,49.58
2017-09-16T11:05:28.947Z,47.42
2017-09-16T11:06:28.954Z,44.34
2017-09-16T11:07:28.967Z,43.43
2017-09-16T11:08:28.967Z,43.27
2017-09-16T11:09:28.974Z,44.17
2017-09-16T11:10:28.980Z,46.27
2017-09-16T11:11:28.983Z,47.24
2017-09-16T11:12:28.991Z,48.21
2017-09-16T11:13:28.997Z,48.08
2017-09-16T11:14:29.003Z,49.53
2017-09-16T11:15:29.010Z,49.51
2017-09-16T11:16:29.016Z,50.09
2017-09-16T11:17:29.024Z,50.31
2017-09-16T11:18:29.026Z,50.28
2017-09-16T11:19:29.033Z,50.11
2017-09-16T11:20:29.037Z,49.97
2017-09-16T11:21:29.043Z,49.95
2017-09-16T11:22:29.050Z,49.34
2017-09-16T11:23:29.052Z,49.60
2017-09-16T11:24:29.060Z,49.99
2017-09-16T11:25:29.065Z,50.84
2017-09-16T11:26:29.072Z,51.12
2017-09-16T11:27:29.074Z,51.12
2017-09-16T11:28:29.079Z,51.03
2017-09-16T11:29:29.084Z,51.22
2017-09-16T11:30:29.092Z,50.90
2017-09-16T11:31:29.093Z,51.10
2017-09-16T11:32:29.098Z,51.39
2017-09-16T11:33:29.102Z,51.48
2017-09-16T11:34:29.107Z,52.16
2017-09-16T11:35:29.111Z,52.16
2017-09-16T11:36:29.114Z,52.76
2017-09-16T11:37:29.121Z,51.99
2017-09-16T11:38:29.125Z,51.70
2017-09-16T11:39:29.128Z,52.09
2017-09-16T11:40:29.133Z,51.44
2017-09-16T11:41:29.163Z,50.93
2017-09-16T11:42:29.141Z,51.41
2017-09-16T11:43:29.147Z,52.09
2017-09-16T11:44:29.148Z,51.89
2017-09-16T11:45:29.152Z,51.00
2017-09-16T11:46:29.158Z,50.71
2017-09-16T11:47:29.161Z,51.36
2017-09-16T11:48:29.166Z,50.59
2017-09-16T11:49:29.169Z,51.53
2017-09-16T11:50:29.174Z,51.46
2017-09-16T11:51:29.177Z,51.75
2017-09-16T11:52:29.181Z,52.25
2017-09-16T11:53:29.185Z,51.97
2017-09-16T11:54:29.189Z,52.28
2017-09-16T11:55:29.192Z,52.09
2017-09-16T11:56:29.196Z,52.19
2017-09-16T11:57:29.201Z,51.61
2017-09-16T11:58:29.205Z,50.93
2017-09-16T11:59:29.207Z,50.93
2017-09-16T12:00:29.212Z,50.45
2017-09-16T12:01:29.215Z,51.03
2017-09-16T12:02:29.219Z,51.22
2017-09-16T12:03:29.223Z,50.38
2017-09-16T12:04:29.226Z,50.57
2017-09-16T12:05:29.231Z,50.86
2017-09-16T12:06:29.234Z,51.05
2017-09-16T12:07:29.237Z,50.47
2017-09-16T12:08:29.243Z,50.67
2017-09-16T12:09:29.246Z,49.99
2017-09-16T12:10:29.250Z,50.28
2017-09-16T12:11:29.253Z,50.76
2017-09-16T12:12:29.256Z,51.34
2017-09-16T12:13:29.261Z,51.44
2017-09-16T12:14:29.264Z,50.96
2017-09-16T12:15:29.267Z,51.44
2017-09-16T12:16:29.272Z,51.07
2017-09-16T12:17:29.275Z,51.65
2017-09-16T12:18:29.280Z,51.46
2017-09-16T12:19:29.283Z,51.27
2017-09-16T12:20:29.288Z,51.34
2017-09-16T12:21:29.291Z,50.35
2017-09-16T12:22:29.295Z,50.54
2017-09-16T12:23:29.302Z,50.45
2017-09-16T12:24:29.305Z,50.76
2017-09-16T12:25:29.306Z,51.34
2017-09-16T12:26:29.309Z,51.44
2017-09-16T12:27:29.313Z,52.62
2017-09-16T12:28:29.317Z,51.34
2017-09-16T12:29:29.321Z,52.91
2017-09-16T12:30:29.325Z,53.01
2017-09-16T12:31:29.328Z,52.62
2017-09-16T12:32:29.332Z,52.65
2017-09-16T12:33:29.339Z,51.20
2017-09-16T12:34:29.340Z,49.07
2017-09-16T12:35:29.342Z,49.82
2017-09-16T12:36:29.347Z,53.48
2017-09-16T12:37:29.350Z,53.67
2017-09-16T12:38:29.354Z,56.11
2017-09-16T12:39:29.357Z,56.81
2017-09-16T12:40:29.362Z,55.36
2017-09-16T12:41:29.367Z,53.75
2017-09-16T12:42:29.369Z,52.89
2017-09-16T12:43:29.373Z,52.40
2017-09-16T12:44:29.377Z,51.80
2017-09-16T12:45:29.380Z,53.25
2017-09-16T12:46:29.384Z,52.89
2017-09-16T12:47:29.387Z,53.34
2017-09-16T12:48:29.391Z,52.67
2017-09-16T12:49:29.394Z,52.57
2017-09-16T12:50:29.398Z,53.25
2017-09-16T12:51:29.402Z,53.89
2017-09-16T12:52:29.405Z,54.02
2017-09-16T12:53:29.409Z,53.92